createdAt,value
2023-02-06T00:01:48.813Z,100088.00
2023-02-06T00:04:23.744Z,100090.00
2023-02-06T00:06:58.612Z,100100.00
2023-02-06T00:09:33.552Z,100097.00
2023-02-06T00:12:08.476Z,100094.00
2023-02-06T00:14:43.337Z,100093.00
2023-02-06T00:17:18.198Z,100089.00
2023-02-06T00:19:53.208Z,100092.00
2023-02-06T00:22:28.072Z,100090.00
2023-02-06T00:25:04.645Z,100093.00
2023-02-06T00:27:39.526Z,100085.00
2023-02-06T00:30:14.737Z,100093.00
2023-02-06T00:32:49.619Z,100080.00
2023-02-06T00:35:24.531Z,100087.00
2023-02-06T00:38:00.781Z,100094.00
2023-02-06T00:40:35.724Z,100088.00
2023-02-06T00:43:10.602Z,100084.00
2023-02-06T00:45:45.526Z,100094.00
2023-02-06T00:48:20.626Z,100085.00
2023-02-06T00:50:55.515Z,100097.00
2023-02-06T00:53:30.441Z,100086.00
2023-02-06T00:56:07.538Z,100093.00
2023-02-06T00:58:42.442Z,100092.00
2023-02-06T01:01:19.578Z,100081.00
2023-02-06T01:03:54.538Z,100083.00
2023-02-06T01:06:29.436Z,100085.00
2023-02-06T01:09:04.400Z,100093.00
2023-02-06T01:11:39.344Z,100086.00
2023-02-06T01:14:15.866Z,100084.00
2023-02-06T01:16:51.568Z,100086.00
2023-02-06T01:19:26.475Z,100086.00
2023-02-06T01:22:01.336Z,100102.00
2023-02-06T01:24:36.390Z,100100.00
2023-02-06T01:27:11.324Z,100100.00
2023-02-06T01:29:46.224Z,100100.00
2023-02-06T01:32:21.314Z,100100.00
2023-02-06T01:34:56.608Z,100099.00
2023-02-06T01:37:31.523Z,100100.00
2023-02-06T01:40:12.017Z,100099.00
2023-02-06T01:42:46.974Z,100096.00
2023-02-06T01:45:21.823Z,100091.00
2023-02-06T01:48:04.690Z,100079.00
2023-02-06T01:50:42.226Z,100079.00
2023-02-06T01:53:19.221Z,100086.00
2023-02-06T01:55:56.697Z,100073.00
2023-02-06T01:58:42.741Z,100087.00
2023-02-06T02:01:18.884Z,100086.00
2023-02-06T02:04:03.360Z,100079.00
2023-02-06T02:06:40.124Z,100091.00
2023-02-06T02:09:15.648Z,100092.00
2023-02-06T02:11:50.603Z,100083.00
2023-02-06T02:14:25.554Z,100088.00
2023-02-06T02:17:06.543Z,100095.00
2023-02-06T02:20:10.974Z,100087.00
2023-02-06T02:23:04.749Z,100076.00
2023-02-06T02:26:24.706Z,100083.00
2023-02-06T02:30:05.790Z,100087.00
2023-02-06T02:32:59.677Z,100098.00
2023-02-06T02:36:15.016Z,100080.00
2023-02-06T02:39:13.575Z,100082.00
2023-02-06T02:42:12.404Z,100070.00
2023-02-06T02:45:00.252Z,100063.00
2023-02-06T02:47:51.938Z,100074.00
2023-02-06T02:50:29.976Z,100066.00
2023-02-06T02:53:06.510Z,100078.00
2023-02-06T02:55:41.664Z,100065.00
2023-02-06T02:58:24.218Z,100065.00
2023-02-06T03:01:07.829Z,100060.00
2023-02-06T03:03:46.425Z,100058.00
2023-02-06T03:06:57.532Z,100073.00
2023-02-06T03:09:57.667Z,100066.00
2023-02-06T03:12:45.303Z,100063.00
2023-02-06T03:15:36.647Z,100069.00
2023-02-06T03:18:17.943Z,100056.00
2023-02-06T03:20:53.050Z,100062.00
2023-02-06T03:23:39.662Z,100070.00
2023-02-06T03:26:21.824Z,100065.00
2023-02-06T03:29:02.115Z,100059.00
2023-02-06T03:31:55.201Z,100060.00
2023-02-06T03:34:55.985Z,100055.00
2023-02-06T03:37:32.631Z,100051.00
2023-02-06T03:40:09.025Z,100060.00
2023-02-06T03:42:56.911Z,100056.00
2023-02-06T03:45:42.036Z,100065.00
2023-02-06T03:48:24.511Z,100060.00
2023-02-06T03:51:09.044Z,100063.00
2023-02-06T03:53:47.443Z,100066.00
2023-02-06T03:56:33.249Z,100080.00
2023-02-06T03:59:08.238Z,100085.00
2023-02-06T04:01:52.799Z,100081.00
2023-02-06T04:04:37.076Z,100079.00
2023-02-06T04:07:27.220Z,100090.00
2023-02-06T04:10:02.237Z,100089.00
2023-02-06T04:12:37.340Z,100079.00
2023-02-06T04:15:12.232Z,100084.00
2023-02-06T04:17:59.401Z,100087.00
2023-02-06T04:20:40.714Z,100088.00
2023-02-06T04:23:15.570Z,100082.00
2023-02-06T04:25:50.423Z,100086.00
2023-02-06T04:28:25.340Z,100074.00
2023-02-06T04:31:00.458Z,100070.00
2023-02-06T04:33:35.342Z,100074.00
2023-02-06T04:36:10.271Z,100080.00
2023-02-06T04:38:45.105Z,100075.00
2023-02-06T04:41:19.943Z,100083.00
2023-02-06T04:43:54.845Z,100084.00
2023-02-06T04:46:29.757Z,100070.00
2023-02-06T04:49:04.763Z,100075.00
2023-02-06T04:51:39.814Z,100065.00
2023-02-06T04:54:17.170Z,100077.00
2023-02-06T04:56:52.121Z,100080.00
2023-02-06T04:59:27.291Z,100079.00
2023-02-06T05:02:02.221Z,100069.00
2023-02-06T05:04:38.895Z,100076.00
2023-02-06T05:07:13.803Z,100077.00
2023-02-06T05:09:48.635Z,100084.00
2023-02-06T05:12:24.575Z,100085.00
2023-02-06T05:14:59.397Z,100084.00
2023-02-06T05:17:34.366Z,100080.00
2023-02-06T05:20:09.971Z,100080.00
2023-02-06T05:22:44.820Z,100081.00
2023-02-06T05:25:19.743Z,100078.00
2023-02-06T05:27:54.763Z,100087.00
2023-02-06T05:30:29.709Z,100080.00
2023-02-06T05:33:04.681Z,100086.00
2023-02-06T05:35:40.408Z,100087.00
2023-02-06T05:38:15.328Z,100096.00
2023-02-06T05:40:51.899Z,100083.00
2023-02-06T05:43:26.853Z,100086.00
2023-02-06T05:46:02.376Z,100083.00
2023-02-06T05:48:37.400Z,100092.00
2023-02-06T05:51:12.313Z,100089.00
2023-02-06T05:53:47.377Z,100082.00
2023-02-06T05:56:22.444Z,100082.00
2023-02-06T05:58:57.293Z,100087.00
2023-02-06T06:01:32.167Z,100087.00
2023-02-06T06:04:07.313Z,100078.00
2023-02-06T06:06:42.851Z,100077.00
2023-02-06T06:09:17.998Z,100076.00
2023-02-06T06:11:53.009Z,100081.00
2023-02-06T06:14:28.266Z,100091.00
2023-02-06T06:17:03.412Z,100103.00
2023-02-06T06:19:38.465Z,100097.00
2023-02-06T06:22:13.393Z,100091.00
2023-02-06T06:24:48.318Z,100093.00
2023-02-06T06:27:23.426Z,100088.00
2023-02-06T06:29:58.562Z,100099.00
2023-02-06T06:32:33.650Z,100101.00
2023-02-06T06:35:09.062Z,100114.00
2023-02-06T06:37:44.005Z,100101.00
2023-02-06T06:40:19.062Z,100100.00
2023-02-06T06:42:53.990Z,100100.00
2023-02-06T06:45:28.949Z,100097.00
2023-02-06T06:48:04.181Z,100099.00
2023-02-06T06:50:39.111Z,100106.00
2023-02-06T06:53:13.947Z,100122.00
2023-02-06T06:55:48.850Z,100103.00
2023-02-06T06:58:23.710Z,100106.00
2023-02-06T07:00:59.028Z,100105.00
2023-02-06T07:03:35.197Z,100101.00
2023-02-06T07:06:11.650Z,100104.00
2023-02-06T07:08:46.575Z,100104.00
2023-02-06T07:11:21.580Z,100111.00
2023-02-06T07:13:56.703Z,100111.00
2023-02-06T07:16:31.806Z,100101.00
2023-02-06T07:19:08.276Z,100098.00
2023-02-06T07:21:43.302Z,100108.00
2023-02-06T07:24:18.228Z,100112.00
2023-02-06T07:26:53.171Z,100112.00
2023-02-06T07:29:28.191Z,100116.00
2023-02-06T07:32:04.490Z,100121.00
2023-02-06T07:34:40.549Z,100122.00
2023-02-06T07:37:15.415Z,100124.00
2023-02-06T07:39:50.348Z,100120.00
2023-02-06T07:42:29.808Z,100123.00
2023-02-06T07:45:09.528Z,100119.00
2023-02-06T07:47:45.007Z,100112.00
2023-02-06T07:50:20.293Z,100114.00
2023-02-06T07:52:55.214Z,100116.00
2023-02-06T07:55:30.271Z,100116.00
2023-02-06T07:58:05.364Z,100120.00
2023-02-06T08:00:40.823Z,100110.00
2023-02-06T08:03:15.762Z,100097.00
2023-02-06T08:05:50.639Z,100104.00
2023-02-06T08:08:26.382Z,100105.00
2023-02-06T08:11:06.608Z,100114.00
2023-02-06T08:13:42.898Z,100121.00
2023-02-06T08:16:20.852Z,100112.00
2023-02-06T08:18:55.773Z,100106.00
2023-02-06T08:21:30.770Z,100105.00
2023-02-06T08:24:06.556Z,100111.00
2023-02-06T08:26:41.776Z,100102.00
2023-02-06T08:29:16.693Z,100099.00
2023-02-06T08:31:51.957Z,100089.00
2023-02-06T08:34:27.066Z,100103.00
2023-02-06T08:37:02.214Z,100113.00
2023-02-06T08:39:38.118Z,100102.00
2023-02-06T08:45:09.929Z,100110.00
2023-02-06T08:47:44.781Z,100095.00
2023-02-06T08:50:19.755Z,100092.00
2023-02-06T08:52:54.695Z,100100.00
2023-02-06T08:55:29.682Z,100109.00
2023-02-06T08:58:05.161Z,100115.00
2023-02-06T09:00:40.085Z,100113.00
2023-02-06T09:03:15.053Z,100117.00
2023-02-06T09:08:46.574Z,100122.00
2023-02-06T09:14:31.987Z,100115.00
2023-02-06T09:17:07.107Z,100106.00
2023-02-06T09:19:42.091Z,100103.00
2023-02-06T09:22:17.468Z,100101.00
2023-02-06T09:24:52.298Z,100095.00
2023-02-06T09:27:27.118Z,100096.00
2023-02-06T09:30:02.074Z,100107.00
2023-02-06T09:32:37.833Z,100097.00
2023-02-06T09:35:12.810Z,100092.00
2023-02-06T09:37:48.126Z,100101.00
2023-02-06T09:40:26.968Z,100086.00
2023-02-06T09:43:03.440Z,100086.00
2023-02-06T09:45:39.906Z,100081.00
2023-02-06T09:48:22.640Z,100081.00
2023-02-06T09:51:09.642Z,100074.00
2023-02-06T09:54:05.448Z,100063.00
2023-02-06T09:57:17.654Z,100057.00
2023-02-06T10:00:03.821Z,100048.00
2023-02-06T10:03:06.334Z,100039.00
2023-02-06T10:06:01.547Z,100049.00
2023-02-06T10:08:57.716Z,100052.00
2023-02-06T10:12:12.065Z,100041.00
2023-02-06T10:15:12.920Z,100033.00
2023-02-06T10:18:01.006Z,100033.00
2023-02-06T10:20:49.866Z,100037.00
2023-02-06T10:23:45.581Z,100026.00
2023-02-06T10:26:22.562Z,100025.00
2023-02-06T10:28:59.705Z,100023.00
2023-02-06T10:32:06.188Z,100018.00
2023-02-06T10:35:17.027Z,100022.00
2023-02-06T10:38:26.022Z,100020.00
2023-02-06T10:41:12.832Z,100021.00
2023-02-06T10:44:33.201Z,100017.00
2023-02-06T10:48:00.181Z,100022.00
2023-02-06T10:50:50.669Z,100024.00
2023-02-06T10:53:49.098Z,100020.00
2023-02-06T10:56:37.158Z,100026.00
2023-02-06T10:59:39.450Z,100013.00
2023-02-06T11:02:27.511Z,100011.00
2023-02-06T11:05:14.116Z,100007.00
2023-02-06T11:07:56.611Z,100007.00
2023-02-06T11:10:32.239Z,100003.00
2023-02-06T11:13:30.801Z,100005.00
2023-02-06T11:16:13.556Z,100002.00
2023-02-06T11:18:50.283Z,99997.00
2023-02-06T11:22:08.515Z,99992.00
2023-02-06T11:25:10.367Z,99981.00
2023-02-06T11:27:45.521Z,99989.00
2023-02-06T11:30:35.615Z,99986.00
2023-02-06T11:33:38.064Z,99988.00
2023-02-06T11:36:32.634Z,99984.00
2023-02-06T11:39:25.402Z,99982.00
2023-02-06T11:42:15.307Z,99984.00
2023-02-06T11:44:52.033Z,99982.00
2023-02-06T11:47:33.144Z,99969.00
2023-02-06T11:50:34.510Z,99975.00
2023-02-06T11:53:11.998Z,99964.00
2023-02-06T11:56:20.260Z,99971.00
2023-02-06T11:59:24.139Z,99972.00
2023-02-06T12:02:01.352Z,99977.00
2023-02-06T12:04:40.763Z,99979.00
2023-02-06T12:08:06.000Z,99967.00
2023-02-06T12:10:54.282Z,99959.00
2023-02-06T12:13:45.919Z,99951.00
2023-02-06T12:16:23.070Z,99944.00
2023-02-06T12:18:59.887Z,99951.00
2023-02-06T12:21:51.091Z,99943.00
2023-02-06T12:24:40.931Z,99941.00
2023-02-06T12:27:24.804Z,99940.00
2023-02-06T12:30:24.800Z,99931.00
2023-02-06T12:33:36.276Z,99950.00
2023-02-06T12:36:25.525Z,99939.00
2023-02-06T12:39:19.885Z,99933.00
2023-02-06T12:42:28.457Z,99944.00
2023-02-06T12:45:14.129Z,99940.00
2023-02-06T12:48:30.904Z,99938.00
2023-02-06T12:51:45.921Z,99920.00
2023-02-06T12:54:33.435Z,99915.00
2023-02-06T12:57:23.918Z,99909.00
2023-02-06T13:00:30.657Z,99915.00
2023-02-06T13:03:27.766Z,99924.00
2023-02-06T13:06:15.558Z,99915.00
2023-02-06T13:09:03.855Z,99907.00
2023-02-06T13:11:42.520Z,99905.00
2023-02-06T13:14:26.497Z,99899.00
2023-02-06T13:17:11.806Z,99900.00
2023-02-06T13:19:46.656Z,99897.00
2023-02-06T13:22:47.212Z,99890.00
2023-02-06T13:25:30.905Z,99891.00
2023-02-06T13:28:21.645Z,99890.00
2023-02-06T13:31:07.261Z,99903.00
2023-02-06T13:33:49.507Z,99898.00
2023-02-06T13:36:41.903Z,99885.00
2023-02-06T13:39:31.216Z,99888.00
2023-02-06T13:42:49.062Z,99895.00
2023-02-06T13:45:33.548Z,99887.00
2023-02-06T13:48:46.833Z,99886.00
2023-02-06T13:51:50.934Z,99894.00
2023-02-06T13:55:08.772Z,99887.00
2023-02-06T13:58:47.590Z,99878.00
2023-02-06T14:01:29.531Z,99891.00
2023-02-06T14:04:11.410Z,99898.00
2023-02-06T14:07:43.156Z,99889.00
2023-02-06T14:11:24.148Z,99902.00
2023-02-06T14:14:28.321Z,99902.00
2023-02-06T14:17:28.932Z,99901.00
2023-02-06T14:20:24.871Z,99907.00
2023-02-06T14:23:45.433Z,99902.00
2023-02-06T14:26:39.209Z,99892.00
2023-02-06T14:29:45.594Z,99901.00
2023-02-06T14:33:11.619Z,99901.00
2023-02-06T14:36:32.019Z,99908.00
2023-02-06T14:39:42.177Z,99900.00
2023-02-06T14:42:27.179Z,99901.00
2023-02-06T14:45:07.913Z,99904.00
2023-02-06T14:47:44.090Z,99914.00
2023-02-06T14:50:24.312Z,99906.00
2023-02-06T14:53:10.547Z,99912.00
2023-02-06T14:55:47.112Z,99896.00
2023-02-06T14:58:27.428Z,99896.00
2023-02-06T15:01:20.594Z,99891.00
2023-02-06T15:04:28.663Z,99894.00
2023-02-06T15:07:04.921Z,99902.00
2023-02-06T15:09:44.088Z,99902.00
2023-02-06T15:12:24.330Z,99911.00
2023-02-06T15:15:11.261Z,99908.00
2023-02-06T15:18:06.699Z,99901.00
2023-02-06T15:20:44.585Z,99903.00
2023-02-06T15:24:00.481Z,99907.00
2023-02-06T15:27:03.108Z,99914.00
2023-02-06T15:29:38.024Z,99904.00
2023-02-06T15:32:37.315Z,99901.00
2023-02-06T15:35:24.308Z,99894.00
2023-02-06T15:38:11.439Z,99899.00
2023-02-06T15:40:50.627Z,99890.00
2023-02-06T15:43:27.187Z,99897.00
2023-02-06T15:46:05.312Z,99905.00
2023-02-06T15:48:49.330Z,99899.00
2023-02-06T15:51:50.336Z,99895.00
2023-02-06T15:54:27.906Z,99896.00
2023-02-06T15:57:34.388Z,99900.00
2023-02-06T16:00:27.787Z,99894.00
2023-02-06T16:03:16.011Z,99902.00
2023-02-06T16:05:52.345Z,99900.00
2023-02-06T16:08:35.010Z,99895.00
2023-02-06T16:11:29.922Z,99891.00
2023-02-06T16:14:06.138Z,99891.00
2023-02-06T16:16:41.123Z,99890.00
2023-02-06T16:19:46.885Z,99891.00
2023-02-06T16:22:21.629Z,99892.00
2023-02-06T16:25:32.332Z,99892.00
2023-02-06T16:28:22.933Z,99884.00
2023-02-06T16:31:00.134Z,99884.00
2023-02-06T16:33:45.959Z,99884.00
2023-02-06T16:36:23.750Z,99864.00
2023-02-06T16:39:04.047Z,99872.00
2023-02-06T16:41:40.603Z,99876.00
2023-02-06T16:44:16.077Z,99864.00
2023-02-06T16:46:51.103Z,99878.00
2023-02-06T16:49:25.987Z,99890.00
2023-02-06T16:52:00.973Z,99889.00
2023-02-06T16:54:35.986Z,99902.00
2023-02-06T16:57:41.697Z,99907.00
2023-02-06T17:00:31.326Z,99907.00
2023-02-06T17:03:06.429Z,99910.00
2023-02-06T17:05:41.675Z,99908.00
2023-02-06T17:08:23.143Z,99905.00
2023-02-06T17:10:58.005Z,99886.00
2023-02-06T17:13:32.872Z,99892.00
2023-02-06T17:16:11.653Z,99880.00
2023-02-06T17:18:47.720Z,99887.00
2023-02-06T17:21:24.173Z,99887.00
2023-02-06T17:24:00.538Z,99884.00
2023-02-06T17:26:35.440Z,99879.00
2023-02-06T17:29:14.123Z,99877.00
2023-02-06T17:31:49.045Z,99876.00
2023-02-06T17:34:25.471Z,99879.00
2023-02-06T17:37:00.582Z,99893.00
2023-02-06T17:39:35.694Z,99892.00
2023-02-06T17:42:10.548Z,99892.00
2023-02-06T17:44:45.482Z,99889.00
2023-02-06T17:47:20.363Z,99886.00
2023-02-06T17:49:55.236Z,99898.00
2023-02-06T17:52:30.089Z,99886.00
2023-02-06T17:55:05.231Z,99885.00
2023-02-06T17:57:40.276Z,99877.00
2023-02-06T18:00:17.838Z,99876.00
2023-02-06T18:02:55.067Z,99874.00
2023-02-06T18:05:29.962Z,99872.00
2023-02-06T18:08:04.787Z,99873.00
2023-02-06T18:10:39.773Z,99870.00
2023-02-06T18:13:14.662Z,99877.00
2023-02-06T18:15:55.354Z,99868.00
2023-02-06T18:18:31.132Z,99855.00
2023-02-06T18:21:06.237Z,99873.00
2023-02-06T18:23:41.230Z,99862.00
2023-02-06T18:26:16.947Z,99861.00
2023-02-06T18:28:51.856Z,99855.00
2023-02-06T18:31:33.573Z,99858.00
2023-02-06T18:34:08.951Z,99863.00
2023-02-06T18:36:43.795Z,99864.00
2023-02-06T18:39:18.655Z,99863.00
2023-02-06T18:42:12.159Z,99851.00
2023-02-06T18:44:47.152Z,99877.00
2023-02-06T18:47:22.097Z,99870.00
2023-02-06T18:49:56.959Z,99867.00
2023-02-06T18:52:31.857Z,99868.00
2023-02-06T18:55:08.557Z,99875.00
2023-02-06T18:57:43.572Z,99865.00
2023-02-06T19:00:22.276Z,99861.00
2023-02-06T19:03:00.654Z,99860.00
2023-02-06T19:05:37.373Z,99850.00
2023-02-06T19:08:12.245Z,99853.00
2023-02-06T19:10:47.152Z,99846.00
2023-02-06T19:13:22.114Z,99848.00
2023-02-06T19:16:09.573Z,99844.00
2023-02-06T19:18:47.427Z,99861.00
2023-02-06T19:21:26.163Z,99869.00
2023-02-06T19:24:01.589Z,99866.00
2023-02-06T19:26:36.436Z,99881.00
2023-02-06T19:29:16.780Z,99874.00
2023-02-06T19:31:52.478Z,99877.00
2023-02-06T19:34:27.779Z,99875.00
2023-02-06T19:37:05.602Z,99866.00
2023-02-06T19:39:43.062Z,99867.00
2023-02-06T19:42:18.785Z,99863.00
2023-02-06T19:44:57.280Z,99859.00
2023-02-06T19:47:34.037Z,99854.00
2023-02-06T19:50:09.342Z,99863.00
2023-02-06T19:52:44.302Z,99854.00
2023-02-06T19:55:19.331Z,99847.00
2023-02-06T19:57:54.375Z,99850.00
2023-02-06T20:00:29.392Z,99861.00
2023-02-06T20:03:04.355Z,99861.00
2023-02-06T20:05:39.309Z,99872.00
2023-02-06T20:08:15.535Z,99878.00
2023-02-06T20:10:50.459Z,99890.00
2023-02-06T20:13:25.664Z,99884.00
2023-02-06T20:16:05.257Z,99881.00
2023-02-06T20:18:40.756Z,99879.00
2023-02-06T20:21:28.184Z,99884.00
2023-02-06T20:24:07.114Z,99870.00
2023-02-06T20:26:43.254Z,99859.00
2023-02-06T20:29:26.768Z,99857.00
2023-02-06T20:32:03.697Z,99854.00
2023-02-06T20:34:38.836Z,99866.00
2023-02-06T20:37:14.219Z,99872.00
2023-02-06T20:39:49.412Z,99874.00
2023-02-06T20:42:27.012Z,99878.00
2023-02-06T20:45:02.300Z,99898.00
2023-02-06T20:47:38.039Z,99894.00
2023-02-06T20:50:13.623Z,99893.00
2023-02-06T20:52:49.148Z,99893.00
2023-02-06T20:55:24.347Z,99880.00
2023-02-06T20:57:59.272Z,99894.00
2023-02-06T21:00:34.987Z,99882.00
2023-02-06T21:03:10.005Z,99879.00
2023-02-06T21:05:45.577Z,99869.00
2023-02-06T21:08:20.411Z,99861.00
2023-02-06T21:10:55.344Z,99861.00
2023-02-06T21:13:30.405Z,99854.00
2023-02-06T21:16:05.846Z,99855.00
2023-02-06T21:18:42.602Z,99852.00
2023-02-06T21:21:18.126Z,99859.00
2023-02-06T21:23:55.818Z,99840.00
2023-02-06T21:26:31.636Z,99838.00
2023-02-06T21:29:07.792Z,99841.00
2023-02-06T21:31:43.724Z,99840.00
2023-02-06T21:34:23.145Z,99835.00
2023-02-06T21:36:58.083Z,99841.00
2023-02-06T21:39:33.749Z,99855.00
2023-02-06T21:42:10.332Z,99856.00
2023-02-06T21:44:45.299Z,99852.00
2023-02-06T21:47:20.284Z,99846.00
2023-02-06T21:49:55.192Z,99852.00
2023-02-06T21:52:30.041Z,99859.00
2023-02-06T21:55:07.614Z,99860.00
2023-02-06T21:57:42.644Z,99858.00
2023-02-06T22:00:17.514Z,99850.00
2023-02-06T22:02:52.487Z,99840.00
2023-02-06T22:05:28.963Z,99836.00
2023-02-06T22:08:04.916Z,99845.00
2023-02-06T22:10:39.762Z,99840.00
2023-02-06T22:13:14.677Z,99850.00
2023-02-06T22:15:51.291Z,99848.00
2023-02-06T22:18:26.269Z,99850.00
2023-02-06T22:21:31.521Z,99855.00
2023-02-06T22:24:08.000Z,99858.00
2023-02-06T22:26:43.767Z,99844.00
2023-02-06T22:29:19.034Z,99840.00
2023-02-06T22:31:53.970Z,99834.00
2023-02-06T22:34:28.844Z,99842.00
2023-02-06T22:37:03.709Z,99837.00
2023-02-06T22:39:39.797Z,99848.00
2023-02-06T22:42:14.705Z,99851.00
2023-02-06T22:44:50.417Z,99843.00
2023-02-06T22:47:25.515Z,99846.00
2023-02-06T22:50:00.428Z,99838.00
2023-02-06T22:52:53.742Z,99840.00
2023-02-06T22:55:48.557Z,99840.00
2023-02-06T22:58:23.380Z,99856.00
2023-02-06T23:01:03.364Z,99867.00
2023-02-06T23:03:38.294Z,99869.00
2023-02-06T23:06:15.607Z,99867.00
2023-02-06T23:08:50.799Z,99874.00
2023-02-06T23:11:26.489Z,99872.00
2023-02-06T23:14:04.635Z,99866.00
2023-02-06T23:16:39.680Z,99876.00
2023-02-06T23:19:15.676Z,99875.00
2023-02-06T23:21:51.366Z,99868.00
2023-02-06T23:24:26.520Z,99874.00
2023-02-06T23:27:01.428Z,99863.00
2023-02-06T23:29:36.334Z,99877.00
2023-02-06T23:32:11.271Z,99871.00
2023-02-06T23:34:46.283Z,99874.00
2023-02-06T23:37:21.109Z,99891.00
2023-02-06T23:39:56.077Z,99893.00
2023-02-06T23:42:31.293Z,99906.00
2023-02-06T23:45:06.772Z,99903.00
2023-02-06T23:47:42.556Z,99903.00
2023-02-06T23:50:18.060Z,99905.00
2023-02-06T23:52:53.469Z,99909.00
2023-02-06T23:55:30.212Z,99910.00
2023-02-06T23:58:05.122Z,99912.00
